Terminal Aerodrome Forecast
Issued by NWS Quad Cities IA IL

Home | Current Version | Previous Version | Text Only | Print | Product List | Glossary On
Versions: 1 2 3 4 5 6 7 8 9 10 11 12 13 14 15 16 17 18 19 20 21 22 23 24 25 26
000
FTUS43 KDVN 292300
TAFMLI
TAF
KMLI 292339Z 3000/3024 16005KT P6SM VCTS FEW050CB BKN250
      TEMPO 3000/3002 2SM TSRA BR BKN035CB
     FM300600 22005KT P6SM VCSH SCT012 BKN030
     FM301300 28006KT 6SM BR BKN030
     FM301500 28007KT P6SM SCT035=

USA.gov is the U.S. government's official web portal to all federal, state and local government web resources and services.